createdAt,value
2023-04-29T00:00:41.584Z,98424.38
2023-04-29T00:03:08.474Z,98429.22
2023-04-29T00:05:36.076Z,98431.63
2023-04-29T00:08:03.932Z,98425.97
2023-04-29T00:10:30.577Z,98421.50
2023-04-29T00:12:57.146Z,98422.09
2023-04-29T00:15:23.765Z,98424.63
2023-04-29T00:17:50.744Z,98428.47
2023-04-29T00:20:17.663Z,98424.31
2023-04-29T00:22:44.983Z,98425.59
2023-04-29T00:25:12.226Z,98434.03
2023-04-29T00:27:39.440Z,98428.06
2023-04-29T00:30:08.179Z,98424.16
2023-04-29T00:32:34.873Z,98414.56
2023-04-29T00:35:02.234Z,98416.16
2023-04-29T00:37:28.875Z,98424.63
2023-04-29T00:39:55.448Z,98425.19
2023-04-29T00:42:22.402Z,98425.31
2023-04-29T00:44:48.965Z,98422.34
2023-04-29T00:47:15.552Z,98423.09
2023-04-29T00:49:42.298Z,98420.66
2023-04-29T00:52:11.654Z,98429.75
2023-04-29T00:54:39.163Z,98426.41
2023-04-29T00:57:06.293Z,98418.09
2023-04-29T00:59:34.389Z,98434.16
2023-04-29T01:02:05.164Z,98433.13
2023-04-29T01:04:31.978Z,98438.69
2023-04-29T01:07:24.074Z,98431.06
2023-04-29T01:10:02.879Z,98435.91
2023-04-29T01:12:53.522Z,98436.47
2023-04-29T01:15:40.314Z,98437.03
2023-04-29T01:18:26.348Z,98437.34
2023-04-29T01:20:53.538Z,98434.25
2023-04-29T01:23:20.151Z,98440.97
2023-04-29T01:25:47.933Z,98435.41
2023-04-29T01:29:02.328Z,98443.19
2023-04-29T01:31:37.024Z,98443.53
2023-04-29T01:34:15.131Z,98439.09
2023-04-29T01:36:44.740Z,98439.09
2023-04-29T01:39:46.867Z,98438.41
2023-04-29T01:42:25.216Z,98446.09
2023-04-29T01:44:55.157Z,98440.75
2023-04-29T01:47:22.032Z,98444.06
2023-04-29T01:49:49.660Z,98438.25
2023-04-29T01:52:16.357Z,98430.16
2023-04-29T01:54:43.232Z,98435.13
2023-04-29T01:57:09.800Z,98436.94
2023-04-29T01:59:36.719Z,98442.28
2023-04-29T02:02:03.297Z,98438.25
2023-04-29T02:04:33.664Z,98443.38
2023-04-29T02:07:00.372Z,98445.56
2023-04-29T02:09:27.257Z,98449.75
2023-04-29T02:11:53.851Z,98456.28
2023-04-29T02:14:20.934Z,98461.34
2023-04-29T02:16:47.577Z,98454.53
2023-04-29T02:19:14.176Z,98456.53
2023-04-29T02:21:40.901Z,98455.47
2023-04-29T02:24:07.481Z,98455.28
2023-04-29T02:26:34.341Z,98461.97
2023-04-29T02:29:00.954Z,98465.00
2023-04-29T02:31:28.982Z,98466.72
2023-04-29T02:33:55.794Z,98476.78
2023-04-29T02:36:22.620Z,98469.56
2023-04-29T02:38:50.665Z,98474.88
2023-04-29T02:41:18.093Z,98476.03
2023-04-29T02:43:45.005Z,98478.78
2023-04-29T02:46:13.741Z,98476.50
2023-04-29T02:48:40.638Z,98475.88
2023-04-29T02:51:11.141Z,98478.09
2023-04-29T02:53:37.772Z,98469.16
2023-04-29T02:56:05.229Z,98478.78
2023-04-29T02:58:31.814Z,98475.72
2023-04-29T03:00:58.501Z,98485.41
2023-04-29T03:03:25.211Z,98486.28
2023-04-29T03:06:01.931Z,98476.94
2023-04-29T03:08:28.522Z,98473.53
2023-04-29T03:10:55.167Z,98485.16
2023-04-29T03:13:22.228Z,98482.88
2023-04-29T03:15:48.846Z,98479.44
2023-04-29T03:18:15.449Z,98488.50
2023-04-29T03:20:42.010Z,98484.19
2023-04-29T03:23:08.556Z,98493.50
2023-04-29T03:25:36.767Z,98491.44
2023-04-29T03:28:04.160Z,98495.94
2023-04-29T03:30:30.752Z,98501.06
2023-04-29T03:32:57.579Z,98489.84
2023-04-29T03:35:24.553Z,98487.19
2023-04-29T03:37:51.160Z,98490.69
2023-04-29T03:40:17.921Z,98483.91
2023-04-29T03:42:44.772Z,98496.56
2023-04-29T03:45:14.166Z,98487.38
2023-04-29T03:47:41.444Z,98483.56
2023-04-29T03:50:08.940Z,98496.59
2023-04-29T03:52:38.823Z,98493.88
2023-04-29T03:55:05.886Z,98499.19
2023-04-29T03:57:32.506Z,98506.31
2023-04-29T03:59:59.055Z,98515.03
2023-04-29T04:02:25.852Z,98510.53
2023-04-29T04:04:55.088Z,98517.88
2023-04-29T04:07:21.775Z,98516.03
2023-04-29T04:09:48.325Z,98516.03
2023-04-29T04:12:15.105Z,98521.00
2023-04-29T04:14:42.064Z,98524.41
2023-04-29T04:17:08.655Z,98525.47
2023-04-29T04:19:35.277Z,98529.94
2023-04-29T04:22:04.541Z,98529.25
2023-04-29T04:24:31.221Z,98527.59
2023-04-29T04:26:58.007Z,98526.41
2023-04-29T04:29:25.626Z,98523.19
2023-04-29T04:31:52.242Z,98525.59
2023-04-29T04:34:18.871Z,98523.03
2023-04-29T04:36:45.749Z,98531.56
2023-04-29T04:39:12.356Z,98542.41
2023-04-29T04:41:39.111Z,98546.69
2023-04-29T04:44:06.236Z,98548.94
2023-04-29T04:46:32.897Z,98563.16
2023-04-29T04:49:00.125Z,98565.56
2023-04-29T04:51:28.530Z,98561.78
2023-04-29T04:53:55.741Z,98568.97
2023-04-29T04:56:22.521Z,98566.56
2023-04-29T04:58:49.111Z,98565.72
2023-04-29T05:01:15.934Z,98568.47
2023-04-29T05:03:42.769Z,98569.38
2023-04-29T05:06:13.775Z,98569.31
2023-04-29T05:08:40.487Z,98574.25
2023-04-29T05:11:07.052Z,98566.03
2023-04-29T05:13:34.283Z,98571.84
2023-04-29T05:16:06.372Z,98570.25
2023-04-29T05:18:33.251Z,98573.38
2023-04-29T05:21:00.843Z,98574.94
2023-04-29T05:23:28.619Z,98584.81
2023-04-29T05:25:55.739Z,98578.69
2023-04-29T05:28:22.337Z,98569.41
2023-04-29T05:30:51.953Z,98581.22
2023-04-29T05:33:18.681Z,98586.91
2023-04-29T05:35:45.736Z,98585.13
2023-04-29T05:38:12.301Z,98581.69
2023-04-29T05:40:38.849Z,98590.38
2023-04-29T05:43:05.452Z,98593.28
2023-04-29T05:45:32.009Z,98597.03
2023-04-29T05:47:58.597Z,98605.59
2023-04-29T05:50:25.588Z,98604.66
2023-04-29T05:52:54.064Z,98610.66
2023-04-29T05:55:22.139Z,98613.50
2023-04-29T05:57:48.732Z,98623.50
2023-04-29T06:00:15.341Z,98624.16
2023-04-29T06:02:54.667Z,98631.47
2023-04-29T06:05:24.921Z,98635.94
2023-04-29T06:07:52.219Z,98639.50
2023-04-29T06:10:19.096Z,98642.63
2023-04-29T06:12:46.697Z,98649.22
2023-04-29T06:15:13.353Z,98656.88
2023-04-29T06:17:40.211Z,98658.13
2023-04-29T06:20:09.129Z,98661.69
2023-04-29T06:22:35.790Z,98662.75
2023-04-29T06:25:02.426Z,98664.25
2023-04-29T06:27:29.269Z,98668.00
2023-04-29T06:29:56.395Z,98674.88
2023-04-29T06:32:23.044Z,98679.50
2023-04-29T06:34:50.031Z,98679.66
2023-04-29T06:37:16.690Z,98680.69
2023-04-29T06:39:43.264Z,98688.78
2023-04-29T06:42:10.177Z,98690.72
2023-04-29T06:44:36.860Z,98701.47
2023-04-29T06:47:03.508Z,98704.78
2023-04-29T06:49:30.128Z,98703.56
2023-04-29T06:51:56.735Z,98713.28
2023-04-29T06:54:23.311Z,98708.66
2023-04-29T06:56:49.883Z,98711.50
2023-04-29T06:59:19.238Z,98714.28
2023-04-29T07:01:47.198Z,98719.28
2023-04-29T07:04:15.798Z,98722.34
2023-04-29T07:06:46.564Z,98724.19
2023-04-29T07:09:14.315Z,98726.63
2023-04-29T07:11:41.138Z,98728.03
2023-04-29T07:14:07.981Z,98736.44
2023-04-29T07:16:34.873Z,98732.16
2023-04-29T07:19:01.453Z,98741.78
2023-04-29T07:21:28.130Z,98746.19
2023-04-29T07:23:55.336Z,98748.91
2023-04-29T07:26:22.112Z,98757.91
2023-04-29T07:28:49.571Z,98751.78
2023-04-29T07:31:16.615Z,98755.06
2023-04-29T07:33:44.938Z,98759.44
2023-04-29T07:36:11.684Z,98765.69
2023-04-29T07:38:38.336Z,98763.72
2023-04-29T07:41:05.109Z,98763.88
2023-04-29T07:43:31.725Z,98760.84
2023-04-29T07:45:58.324Z,98766.06
2023-04-29T07:48:25.080Z,98768.25
2023-04-29T07:50:51.662Z,98768.81
2023-04-29T07:53:18.376Z,98773.53
2023-04-29T07:55:44.997Z,98777.81
2023-04-29T07:58:11.589Z,98783.09
2023-04-29T08:00:38.792Z,98784.56
2023-04-29T08:03:05.571Z,98781.84
2023-04-29T08:05:32.505Z,98785.56
2023-04-29T08:07:59.396Z,98790.09
2023-04-29T08:10:27.036Z,98788.03
2023-04-29T08:12:53.631Z,98787.47
2023-04-29T08:15:20.489Z,98789.59
2023-04-29T08:17:47.683Z,98800.91
2023-04-29T08:20:15.253Z,98808.56
2023-04-29T08:22:42.555Z,98805.75
2023-04-29T08:25:09.858Z,98808.69
2023-04-29T08:27:36.848Z,98807.19
2023-04-29T08:30:04.500Z,98810.81
2023-04-29T08:32:32.007Z,98809.97
2023-04-29T08:34:58.735Z,98824.28
2023-04-29T08:37:25.342Z,98825.28
2023-04-29T08:39:51.999Z,98824.00
2023-04-29T08:42:32.399Z,98825.13
2023-04-29T08:45:00.310Z,98833.50
2023-04-29T08:47:31.085Z,98825.03
2023-04-29T08:50:04.296Z,98836.09
2023-04-29T08:52:34.003Z,98834.56
2023-04-29T08:55:05.307Z,98835.59
2023-04-29T08:57:39.941Z,98836.38
2023-04-29T09:00:10.886Z,98821.38
2023-04-29T09:02:50.056Z,98829.56
2023-04-29T09:05:16.984Z,98816.47
2023-04-29T09:07:45.075Z,98818.06
2023-04-29T09:10:12.320Z,98828.13
2023-04-29T09:12:38.951Z,98824.75
2023-04-29T09:15:06.772Z,98825.13
2023-04-29T09:17:47.587Z,98827.00
2023-04-29T09:20:20.238Z,98834.19
2023-04-29T09:23:03.920Z,98846.69
2023-04-29T09:25:31.399Z,98842.63
2023-04-29T09:27:58.505Z,98844.88
2023-04-29T09:30:26.590Z,98846.69
2023-04-29T09:33:08.479Z,98856.53
2023-04-29T09:35:36.018Z,98858.22
2023-04-29T09:38:15.090Z,98860.75
2023-04-29T09:40:58.364Z,98861.13
2023-04-29T09:43:29.229Z,98857.28
2023-04-29T09:45:56.088Z,98863.72
2023-04-29T09:48:33.487Z,98870.16
2023-04-29T09:51:03.177Z,98860.97
2023-04-29T09:53:31.463Z,98870.56
2023-04-29T09:56:02.609Z,98870.34
2023-04-29T09:58:37.999Z,98864.88
2023-04-29T10:01:05.278Z,98867.91
2023-04-29T10:03:35.086Z,98859.34
2023-04-29T10:06:04.714Z,98865.41
2023-04-29T10:08:32.946Z,98863.59
2023-04-29T10:11:02.328Z,98861.16
2023-04-29T10:13:30.529Z,98864.03
2023-04-29T10:16:29.512Z,98874.81
2023-04-29T10:19:00.310Z,98864.31
2023-04-29T10:21:31.408Z,98867.47
2023-04-29T10:23:59.984Z,98869.69
2023-04-29T10:26:31.974Z,98868.63
2023-04-29T10:29:00.879Z,98864.22
2023-04-29T10:31:28.247Z,98871.31
2023-04-29T10:33:58.926Z,98873.69
2023-04-29T10:36:28.355Z,98862.75
2023-04-29T10:38:58.792Z,98874.19
2023-04-29T10:41:28.687Z,98869.13
2023-04-29T10:43:55.858Z,98874.13
2023-04-29T10:46:26.290Z,98874.72
2023-04-29T10:49:04.924Z,98872.78
2023-04-29T10:51:34.852Z,98874.22
2023-04-29T10:54:13.070Z,98876.47
2023-04-29T10:56:53.912Z,98878.31
2023-04-29T10:59:28.573Z,98889.25
2023-04-29T11:01:55.440Z,98893.19
2023-04-29T11:04:22.998Z,98889.16
2023-04-29T11:06:55.464Z,98892.59
2023-04-29T11:09:27.729Z,98895.13
2023-04-29T11:12:05.775Z,98898.59
2023-04-29T11:14:44.077Z,98890.31
2023-04-29T11:17:15.502Z,98895.53
2023-04-29T11:19:48.936Z,98887.94
2023-04-29T11:22:30.765Z,98892.59
2023-04-29T11:25:09.420Z,98894.66
2023-04-29T11:27:40.358Z,98892.56
2023-04-29T11:30:08.371Z,98900.13
2023-04-29T11:32:38.455Z,98901.50
2023-04-29T11:35:12.871Z,98905.22
2023-04-29T11:37:41.243Z,98909.31
2023-04-29T11:40:09.128Z,98906.28
2023-04-29T11:42:43.725Z,98912.78
2023-04-29T11:45:10.941Z,98905.63
2023-04-29T11:47:38.154Z,98918.31
2023-04-29T11:50:10.150Z,98915.22
2023-04-29T11:52:40.385Z,98921.16
2023-04-29T11:55:10.031Z,98912.53
2023-04-29T11:57:37.410Z,98914.78
2023-04-29T12:00:06.110Z,98917.28
2023-04-29T12:02:35.262Z,98921.22
2023-04-29T12:05:07.947Z,98918.97
2023-04-29T12:07:36.458Z,98918.94
2023-04-29T12:10:03.699Z,98920.69
2023-04-29T12:12:34.770Z,98916.59
2023-04-29T12:15:03.181Z,98926.13
2023-04-29T12:17:30.287Z,98925.94
2023-04-29T12:19:57.231Z,98933.41
2023-04-29T12:22:31.445Z,98931.91
2023-04-29T12:24:58.235Z,98926.59
2023-04-29T12:27:24.908Z,98926.78
2023-04-29T12:29:52.860Z,98927.47
2023-04-29T12:32:24.410Z,98930.50
2023-04-29T12:34:54.918Z,98925.94
2023-04-29T12:37:25.857Z,98928.09
2023-04-29T12:39:55.381Z,98931.41
2023-04-29T12:42:21.982Z,98930.94
2023-04-29T12:44:48.841Z,98940.44
2023-04-29T12:47:16.652Z,98934.97
2023-04-29T12:49:47.972Z,98924.28
2023-04-29T12:52:14.830Z,98934.44
2023-04-29T12:54:43.286Z,98937.47
2023-04-29T12:57:11.538Z,98938.94
2023-04-29T12:59:38.779Z,98943.66
2023-04-29T13:02:05.621Z,98940.47
2023-04-29T13:04:32.529Z,98944.38
2023-04-29T13:07:03.949Z,98949.38
2023-04-29T13:09:31.110Z,98942.19
2023-04-29T13:11:58.915Z,98941.06
2023-04-29T13:14:25.800Z,98943.41
2023-04-29T13:16:52.371Z,98946.94
2023-04-29T13:19:34.792Z,98946.78
2023-04-29T13:22:06.609Z,98948.38
2023-04-29T13:24:35.664Z,98953.84
2023-04-29T13:27:03.915Z,98946.41
2023-04-29T13:29:31.036Z,98949.28
2023-04-29T13:31:57.699Z,98948.41
2023-04-29T13:34:24.447Z,98946.03
2023-04-29T13:36:51.082Z,98945.16
2023-04-29T13:39:17.973Z,98949.63
2023-04-29T13:41:46.135Z,98950.75
2023-04-29T13:44:21.584Z,98955.84
2023-04-29T13:46:55.628Z,98952.13
2023-04-29T13:49:54.748Z,98958.78
2023-04-29T13:53:01.583Z,98961.81
2023-04-29T14:00:00.824Z,98968.25
2023-04-29T14:02:28.341Z,98970.53
2023-04-29T14:04:55.645Z,98969.53
2023-04-29T14:07:22.906Z,98977.75
2023-04-29T14:09:49.522Z,98981.44
2023-04-29T14:12:16.115Z,98974.25
2023-04-29T14:14:42.724Z,98978.69
2023-04-29T14:17:09.364Z,98984.03
2023-04-29T14:19:35.954Z,98974.41
2023-04-29T14:22:02.531Z,98980.72
2023-04-29T14:24:29.196Z,98988.09
2023-04-29T14:26:56.001Z,98997.00
2023-04-29T14:29:22.566Z,98997.94
2023-04-29T14:31:49.374Z,99006.22
2023-04-29T14:34:16.023Z,99001.75
2023-04-29T14:36:43.152Z,99000.44
2023-04-29T14:39:10.931Z,98998.22
2023-04-29T14:41:37.472Z,99010.19
2023-04-29T14:44:04.056Z,99014.53
2023-04-29T14:46:33.463Z,99017.50
2023-04-29T14:49:00.086Z,99021.31
2023-04-29T14:51:27.243Z,99021.06
2023-04-29T14:53:53.859Z,99027.44
2023-04-29T14:56:20.464Z,99024.38
2023-04-29T14:58:47.038Z,99021.59
2023-04-29T15:01:13.759Z,99035.88
2023-04-29T15:03:45.009Z,99032.59
2023-04-29T15:06:12.842Z,99031.91
2023-04-29T15:08:39.521Z,99032.88
2023-04-29T15:11:06.226Z,99031.06
2023-04-29T15:13:32.820Z,99034.19
2023-04-29T15:15:59.405Z,99044.06
2023-04-29T15:18:27.432Z,99040.53
2023-04-29T15:20:53.997Z,99044.16
2023-04-29T15:23:20.652Z,99040.34
2023-04-29T15:25:47.524Z,99048.34
2023-04-29T15:28:14.379Z,99050.91
2023-04-29T15:30:41.126Z,99048.00
2023-04-29T15:33:07.792Z,99047.91
2023-04-29T15:35:36.278Z,99048.94
2023-04-29T15:38:02.900Z,99055.06
2023-04-29T15:40:29.877Z,99064.94
2023-04-29T15:42:56.519Z,99064.41
2023-04-29T15:45:23.167Z,99071.94
2023-04-29T15:47:49.791Z,99064.06
2023-04-29T15:50:16.400Z,99075.44
2023-04-29T15:52:43.020Z,99065.25
2023-04-29T15:55:09.712Z,99067.34
2023-04-29T15:57:41.038Z,99066.72
2023-04-29T16:00:08.984Z,99072.28
2023-04-29T16:02:35.783Z,99076.94
2023-04-29T16:05:02.916Z,99075.91
2023-04-29T16:07:29.670Z,99078.28
2023-04-29T16:09:56.306Z,99083.34
2023-04-29T16:12:22.958Z,99071.31
2023-04-29T16:14:50.077Z,99076.66
2023-04-29T16:17:17.265Z,99079.66
2023-04-29T16:19:44.542Z,99074.84
2023-04-29T16:22:11.224Z,99082.94
2023-04-29T16:24:37.840Z,99081.75
2023-04-29T16:27:04.392Z,99087.75
2023-04-29T16:29:30.989Z,99079.66
2023-04-29T16:31:57.526Z,99081.34
2023-04-29T16:34:24.201Z,99077.56
2023-04-29T16:36:51.214Z,99088.97
2023-04-29T16:39:17.851Z,99084.97
2023-04-29T16:41:44.389Z,99081.63
2023-04-29T16:44:11.589Z,99087.75
2023-04-29T16:46:38.505Z,99077.88
2023-04-29T16:49:05.958Z,99081.31
2023-04-29T16:51:33.595Z,99091.22
2023-04-29T16:54:00.382Z,99092.88
2023-04-29T16:56:26.980Z,99095.88
2023-04-29T16:58:53.625Z,99092.41
2023-04-29T17:01:20.366Z,99093.78
2023-04-29T17:03:47.978Z,99091.50
2023-04-29T17:06:16.368Z,99093.19
2023-04-29T17:08:44.337Z,99094.84
2023-04-29T17:11:11.337Z,99098.72
2023-04-29T17:13:37.937Z,99101.75
2023-04-29T17:16:05.460Z,99096.31
2023-04-29T17:18:32.178Z,99106.50
2023-04-29T17:20:59.630Z,99097.06
2023-04-29T17:23:26.245Z,99103.19
2023-04-29T17:25:54.519Z,99099.22
2023-04-29T17:28:21.165Z,99100.56
2023-04-29T17:30:47.732Z,99112.66
2023-04-29T17:33:14.409Z,99098.56
2023-04-29T17:35:41.026Z,99106.81
2023-04-29T17:38:07.884Z,99108.19
2023-04-29T17:40:35.006Z,99110.09
2023-04-29T17:43:01.690Z,99105.16
2023-04-29T17:45:28.403Z,99119.88
2023-04-29T17:47:55.372Z,99126.16
2023-04-29T17:50:22.002Z,99125.97
2023-04-29T17:52:48.667Z,99129.44
2023-04-29T17:55:15.280Z,99134.84
2023-04-29T17:57:41.954Z,99132.56
2023-04-29T18:00:09.679Z,99128.38
2023-04-29T18:02:37.033Z,99130.91
2023-04-29T18:05:04.130Z,99130.34
2023-04-29T18:07:33.633Z,99146.50
2023-04-29T18:10:00.407Z,99144.75
2023-04-29T18:12:27.078Z,99145.88
2023-04-29T18:14:53.732Z,99142.91
2023-04-29T18:17:20.577Z,99136.88
2023-04-29T18:19:49.161Z,99142.56
2023-04-29T18:22:16.371Z,99147.06
2023-04-29T18:24:43.540Z,99142.88
2023-04-29T18:27:10.307Z,99142.00
2023-04-29T18:29:36.892Z,99154.25
2023-04-29T18:32:05.710Z,99161.00
2023-04-29T18:34:34.062Z,99160.34
2023-04-29T18:37:01.280Z,99162.31
2023-04-29T18:39:27.872Z,99163.25
2023-04-29T18:41:54.496Z,99166.41
2023-04-29T18:44:21.239Z,99164.56
2023-04-29T18:46:47.823Z,99164.00
2023-04-29T18:49:16.767Z,99165.56
2023-04-29T18:51:46.834Z,99169.84
2023-04-29T18:54:16.205Z,99168.63
2023-04-29T18:56:49.033Z,99173.34
2023-04-29T18:59:19.015Z,99172.00
2023-04-29T19:01:47.210Z,99171.66
2023-04-29T19:04:14.321Z,99173.03
2023-04-29T19:06:41.787Z,99170.94
2023-04-29T19:09:08.655Z,99170.13
2023-04-29T19:11:36.094Z,99174.72
2023-04-29T19:14:04.045Z,99180.03
2023-04-29T19:16:34.797Z,99188.34
2023-04-29T19:19:03.838Z,99184.19
2023-04-29T19:21:34.557Z,99192.06
2023-04-29T19:24:01.223Z,99190.63
2023-04-29T19:26:27.889Z,99203.44
2023-04-29T19:28:54.768Z,99198.69
2023-04-29T19:31:21.420Z,99204.09
2023-04-29T19:33:48.248Z,99202.91
2023-04-29T19:36:14.861Z,99207.91
2023-04-29T19:38:41.655Z,99203.69
2023-04-29T19:41:08.589Z,99203.41
2023-04-29T19:43:35.519Z,99205.66
2023-04-29T19:46:02.212Z,99206.31
2023-04-29T19:48:29.003Z,99208.59
2023-04-29T19:50:59.298Z,99211.00
2023-04-29T19:53:26.883Z,99209.44
2023-04-29T19:55:54.128Z,99209.09
2023-04-29T19:58:23.176Z,99214.84
2023-04-29T20:00:49.794Z,99210.75
2023-04-29T20:03:16.613Z,99213.97
2023-04-29T20:05:43.713Z,99208.28
2023-04-29T20:08:10.449Z,99220.81
2023-04-29T20:10:37.502Z,99221.66
2023-04-29T20:13:04.071Z,99218.97
2023-04-29T20:15:30.724Z,99225.69
2023-04-29T20:18:00.574Z,99216.34
2023-04-29T20:20:27.403Z,99222.50
2023-04-29T20:22:57.881Z,99218.97
2023-04-29T20:25:25.519Z,99217.09
2023-04-29T20:27:53.583Z,99216.84
2023-04-29T20:30:20.673Z,99216.50
2023-04-29T20:32:47.377Z,99219.66
2023-04-29T20:35:14.589Z,99219.66
2023-04-29T20:37:41.996Z,99218.47
2023-04-29T20:40:09.667Z,99227.16
2023-04-29T20:42:36.378Z,99236.19
2023-04-29T20:45:03.913Z,99226.00
2023-04-29T20:47:30.515Z,99230.47
2023-04-29T20:49:57.200Z,99226.00
2023-04-29T20:52:24.137Z,99232.84
2023-04-29T20:54:52.466Z,99231.88
2023-04-29T20:57:19.127Z,99228.75
2023-04-29T20:59:45.771Z,99232.47
2023-04-29T21:02:12.488Z,99228.78
2023-04-29T21:04:39.920Z,99240.06
2023-04-29T21:07:10.070Z,99244.47
2023-04-29T21:09:36.799Z,99240.56
2023-04-29T21:12:05.624Z,99234.19
2023-04-29T21:14:33.613Z,99235.34
2023-04-29T21:17:00.384Z,99239.31
2023-04-29T21:19:27.173Z,99235.53
2023-04-29T21:21:53.745Z,99244.06
2023-04-29T21:24:20.405Z,99245.75
2023-04-29T21:26:47.275Z,99243.72
2023-04-29T21:29:13.868Z,99235.78
2023-04-29T21:31:40.524Z,99242.19
2023-04-29T21:34:07.737Z,99235.03
2023-04-29T21:36:34.321Z,99240.63
2023-04-29T21:39:01.004Z,99233.69
2023-04-29T21:41:31.089Z,99235.38
2023-04-29T21:44:00.373Z,99237.00
2023-04-29T21:46:28.470Z,99243.59
2023-04-29T21:48:57.688Z,99231.38
2023-04-29T21:51:24.728Z,99232.34
2023-04-29T21:53:51.433Z,99238.56
2023-04-29T21:56:18.431Z,99240.84
2023-04-29T21:58:45.546Z,99243.47
2023-04-29T22:01:40.433Z,99237.66
2023-04-29T22:04:07.403Z,99247.97
2023-04-29T22:06:34.631Z,99241.81
2023-04-29T22:09:01.906Z,99248.97
2023-04-29T22:11:28.813Z,99252.84
2023-04-29T22:13:55.595Z,99251.84
2023-04-29T22:16:23.439Z,99256.09
2023-04-29T22:18:51.450Z,99264.69
2023-04-29T22:21:18.867Z,99264.81
2023-04-29T22:23:46.098Z,99263.28
2023-04-29T22:26:12.793Z,99267.72
2023-04-29T22:28:39.516Z,99255.59
2023-04-29T22:31:06.455Z,99269.03
2023-04-29T22:33:34.539Z,99275.47
2023-04-29T22:36:01.262Z,99277.34
2023-04-29T22:38:29.122Z,99273.91
2023-04-29T22:40:55.764Z,99269.63
2023-04-29T22:43:22.401Z,99271.88
2023-04-29T22:45:56.289Z,99272.31
2023-04-29T22:48:25.939Z,99274.50
2023-04-29T22:50:56.261Z,99279.19
2023-04-29T22:53:23.451Z,99279.06
2023-04-29T22:55:58.377Z,99276.50
2023-04-29T22:58:26.130Z,99276.97
2023-04-29T23:00:57.541Z,99277.75
2023-04-29T23:03:25.063Z,99276.22
2023-04-29T23:05:52.059Z,99285.94
2023-04-29T23:08:18.691Z,99276.97
2023-04-29T23:10:49.456Z,99285.56
2023-04-29T23:13:17.332Z,99284.09
2023-04-29T23:15:45.172Z,99283.09
2023-04-29T23:18:12.181Z,99284.22
2023-04-29T23:20:38.967Z,99286.03
2023-04-29T23:23:05.857Z,99287.88
2023-04-29T23:25:32.440Z,99283.72
2023-04-29T23:27:59.000Z,99297.50
2023-04-29T23:30:25.709Z,99294.53
2023-04-29T23:32:52.407Z,99293.66
2023-04-29T23:35:19.110Z,99290.81
2023-04-29T23:37:45.683Z,99293.19
2023-04-29T23:40:12.315Z,99298.34
2023-04-29T23:42:38.902Z,99296.13
2023-04-29T23:45:06.298Z,99290.88
2023-04-29T23:47:32.900Z,99292.03
2023-04-29T23:49:59.539Z,99289.94
2023-04-29T23:52:26.281Z,99287.78
2023-04-29T23:54:55.739Z,99298.94
2023-04-29T23:57:22.376Z,99287.72
2023-04-29T23:59:49.093Z,99289.00
